createdAt,value
2022-12-01T00:01:47.795Z,17.27
2022-12-01T00:04:17.181Z,17.77
2022-12-01T00:06:47.044Z,18.42
2022-12-01T00:09:35.478Z,15.83
2022-12-01T00:12:04.811Z,16.92
2022-12-01T00:14:34.066Z,15.40
2022-12-01T00:17:05.102Z,16.00
2022-12-01T00:19:34.392Z,15.27
2022-12-01T00:22:03.648Z,17.20
2022-12-01T00:24:34.871Z,18.40
2022-12-01T00:27:04.142Z,19.10
2022-12-01T00:29:33.396Z,20.73
2022-12-01T00:32:02.764Z,19.65
2022-12-01T00:34:32.166Z,18.90
2022-12-01T00:37:01.911Z,17.65
2022-12-01T00:39:31.439Z,18.65
2022-12-01T00:42:02.134Z,20.60
2022-12-01T00:44:31.874Z,21.00
2022-12-01T00:47:01.155Z,21.47
2022-12-01T00:49:30.404Z,22.90
2022-12-01T00:51:59.725Z,21.92
2022-12-01T00:54:32.291Z,23.23
2022-12-01T00:57:03.283Z,22.52
2022-12-01T00:59:32.817Z,19.77
2022-12-01T01:02:02.662Z,22.13
2022-12-01T01:04:33.064Z,24.17
2022-12-01T01:07:02.810Z,24.83
2022-12-01T01:09:33.596Z,22.40
2022-12-01T01:12:04.368Z,26.53
2022-12-01T01:14:33.674Z,21.23
2022-12-01T01:17:03.117Z,26.88
2022-12-01T01:19:32.387Z,26.20
2022-12-01T01:22:01.773Z,26.15
2022-12-01T01:24:31.234Z,26.00
2022-12-01T01:27:00.534Z,30.73
2022-12-01T01:29:31.213Z,30.98
2022-12-01T01:32:00.450Z,28.80
2022-12-01T01:34:29.793Z,28.60
2022-12-01T01:36:59.026Z,27.97
2022-12-01T01:39:28.334Z,28.30
2022-12-01T01:41:57.544Z,33.60
2022-12-01T01:44:50.871Z,29.08
2022-12-01T01:47:24.670Z,30.58
2022-12-01T01:49:55.657Z,29.37
2022-12-01T01:52:25.432Z,32.42
2022-12-01T01:54:57.093Z,31.88
2022-12-01T01:57:30.227Z,32.92
2022-12-01T02:00:05.344Z,31.20
2022-12-01T02:02:44.928Z,33.30
2022-12-01T02:05:18.727Z,29.95
2022-12-01T02:07:49.459Z,33.22
2022-12-01T02:10:22.783Z,32.30
2022-12-01T02:13:05.038Z,29.83
2022-12-01T02:15:42.464Z,36.23
2022-12-01T02:18:24.977Z,33.95
2022-12-01T02:21:21.072Z,34.22
2022-12-01T02:24:27.680Z,32.88
2022-12-01T02:27:03.940Z,31.00
2022-12-01T02:30:10.510Z,32.40
2022-12-01T02:33:06.290Z,31.33
2022-12-01T02:35:42.815Z,30.23
2022-12-01T02:38:18.471Z,28.98
2022-12-01T02:40:53.794Z,31.23
2022-12-01T02:43:31.577Z,28.70
2022-12-01T02:46:07.147Z,24.23
2022-12-01T02:48:41.618Z,26.55
2022-12-01T02:51:15.819Z,28.23
2022-12-01T02:53:45.617Z,24.15
2022-12-01T02:56:16.228Z,24.07
2022-12-01T02:58:45.595Z,26.00
2022-12-01T03:01:33.903Z,27.67
2022-12-01T03:04:25.620Z,28.40
2022-12-01T03:07:15.636Z,27.85
2022-12-01T03:09:56.483Z,28.40
2022-12-01T03:12:35.755Z,28.40
2022-12-01T03:15:11.427Z,34.55
2022-12-01T03:17:46.659Z,30.80
2022-12-01T03:20:24.242Z,33.88
2022-12-01T03:22:59.510Z,30.53
2022-12-01T03:25:31.478Z,36.50
2022-12-01T03:30:56.870Z,36.55
2022-12-01T03:33:32.992Z,38.85
2022-12-01T03:36:09.331Z,34.53
2022-12-01T03:38:40.286Z,33.33
2022-12-01T03:41:16.051Z,31.83
2022-12-01T03:43:54.024Z,45.15
2022-12-01T03:46:33.194Z,42.67
2022-12-01T03:49:03.942Z,46.00
2022-12-01T03:51:43.459Z,49.15
2022-12-01T03:54:19.760Z,49.72
2022-12-01T03:56:52.610Z,53.60
2022-12-01T03:59:25.407Z,52.50
2022-12-01T04:01:54.742Z,56.30
2022-12-01T04:04:24.050Z,53.50
2022-12-01T04:06:54.829Z,56.63
2022-12-01T04:09:24.124Z,51.47
2022-12-01T04:12:10.960Z,54.22
2022-12-01T04:14:40.202Z,52.93
2022-12-01T04:17:09.622Z,48.65
2022-12-01T04:19:38.974Z,56.17
2022-12-01T04:22:09.598Z,54.92
2022-12-01T04:24:39.226Z,55.95
2022-12-01T04:27:08.570Z,63.27
2022-12-01T04:29:37.957Z,58.38
2022-12-01T04:32:07.310Z,59.83
2022-12-01T04:34:36.553Z,57.22
2022-12-01T04:37:07.623Z,55.47
2022-12-01T04:39:38.443Z,53.70
2022-12-01T04:42:07.732Z,66.97
2022-12-01T04:44:37.387Z,62.00
2022-12-01T04:47:07.807Z,63.05
2022-12-01T04:49:37.509Z,58.15
2022-12-01T04:52:07.704Z,60.43
2022-12-01T04:54:38.460Z,62.85
2022-12-01T04:57:07.722Z,63.25
2022-12-01T04:59:36.958Z,61.95
2022-12-01T05:02:06.287Z,60.60
2022-12-01T05:04:38.832Z,53.43
2022-12-01T05:07:08.339Z,55.08
2022-12-01T05:09:39.328Z,54.50
2022-12-01T05:12:08.775Z,54.38
2022-12-01T05:14:38.033Z,53.75
2022-12-01T05:17:07.317Z,53.57
2022-12-01T05:19:54.048Z,61.55
2022-12-01T05:22:56.913Z,53.60
2022-12-01T05:25:14.321Z,58.03
2022-12-01T05:27:43.800Z,52.42
2022-12-01T05:30:13.812Z,52.17
2022-12-01T05:32:43.155Z,59.33
2022-12-01T05:35:13.007Z,57.80
2022-12-01T05:37:42.409Z,60.72
2022-12-01T05:40:14.195Z,54.67
2022-12-01T05:42:43.511Z,62.37
2022-12-01T05:45:13.028Z,59.10
2022-12-01T05:47:42.306Z,54.38
2022-12-01T05:50:12.342Z,54.03
2022-12-01T05:52:42.082Z,54.72
2022-12-01T05:55:11.699Z,54.73
2022-12-01T05:57:43.239Z,57.70
2022-12-01T06:00:14.619Z,51.95
2022-12-01T06:02:43.910Z,55.00
2022-12-01T06:05:13.243Z,56.03
2022-12-01T06:07:42.764Z,54.93
2022-12-01T06:10:13.038Z,55.35
2022-12-01T06:12:43.801Z,51.97
2022-12-01T06:15:14.277Z,54.97
2022-12-01T06:17:43.810Z,52.40
2022-12-01T06:20:14.070Z,52.30
2022-12-01T06:22:43.500Z,51.67
2022-12-01T06:25:12.918Z,52.08
2022-12-01T06:27:43.631Z,51.70
2022-12-01T06:30:13.408Z,56.40
2022-12-01T06:32:42.735Z,54.77
2022-12-01T06:35:12.003Z,55.03
2022-12-01T06:37:41.267Z,56.42
2022-12-01T06:40:11.871Z,52.53
2022-12-01T06:42:41.717Z,53.45
2022-12-01T06:45:13.324Z,55.43
2022-12-01T06:47:42.611Z,54.97
2022-12-01T06:50:12.503Z,51.28
2022-12-01T06:52:41.767Z,54.00
2022-12-01T06:55:11.350Z,52.40
2022-12-01T06:57:40.907Z,52.10
2022-12-01T07:00:14.122Z,59.20
2022-12-01T07:02:43.932Z,51.13
2022-12-01T07:05:13.453Z,54.70
2022-12-01T07:07:42.853Z,57.05
2022-12-01T07:10:14.166Z,54.17
2022-12-01T07:12:43.440Z,52.28
2022-12-01T07:15:14.276Z,55.83
2022-12-01T07:17:43.530Z,55.33
2022-12-01T07:20:14.112Z,53.42
2022-12-01T07:22:44.294Z,51.40
2022-12-01T07:25:14.067Z,54.60
2022-12-01T07:27:43.429Z,50.25
2022-12-01T07:30:14.841Z,56.38
2022-12-01T07:32:44.328Z,47.28
2022-12-01T07:35:13.677Z,51.10
2022-12-01T07:37:43.001Z,57.20
2022-12-01T07:40:14.197Z,48.17
2022-12-01T07:42:43.661Z,48.67
2022-12-01T07:45:14.572Z,52.55
2022-12-01T07:47:44.727Z,47.27
2022-12-01T07:50:14.172Z,51.35
2022-12-01T07:52:43.445Z,52.30
2022-12-01T07:55:12.709Z,54.63
2022-12-01T07:57:42.034Z,50.70
2022-12-01T08:00:14.165Z,52.33
2022-12-01T08:02:43.531Z,55.05
2022-12-01T08:05:12.950Z,52.53
2022-12-01T08:07:42.349Z,48.67
2022-12-01T08:10:12.649Z,50.55
2022-12-01T08:12:41.968Z,53.83
2022-12-01T08:15:13.379Z,48.70
2022-12-01T08:17:42.691Z,53.05
2022-12-01T08:20:12.860Z,56.97
2022-12-01T08:22:42.231Z,52.42
2022-12-01T08:25:11.960Z,50.87
2022-12-01T08:27:41.689Z,51.15
2022-12-01T08:30:11.991Z,53.08
2022-12-01T08:32:42.716Z,52.30
2022-12-01T08:35:12.236Z,51.85
2022-12-01T08:37:41.642Z,54.20
2022-12-01T08:40:11.514Z,53.28
2022-12-01T08:42:40.860Z,48.67
2022-12-01T08:45:11.596Z,47.25
2022-12-01T08:47:42.639Z,49.78
2022-12-01T08:50:12.350Z,47.73
2022-12-01T08:52:41.680Z,60.72
2022-12-01T08:55:11.441Z,52.88
2022-12-01T08:57:40.758Z,50.50
2022-12-01T09:00:11.075Z,54.60
2022-12-01T09:02:40.566Z,51.90
2022-12-01T09:05:11.579Z,52.03
2022-12-01T09:07:41.313Z,50.97
2022-12-01T09:10:11.542Z,49.42
2022-12-01T09:12:41.020Z,49.97
2022-12-01T09:15:11.040Z,46.57
2022-12-01T09:17:40.520Z,48.80
2022-12-01T09:20:12.505Z,45.92
2022-12-01T09:22:41.770Z,44.35
2022-12-01T09:25:14.892Z,46.30
2022-12-01T09:27:44.315Z,44.17
2022-12-01T09:30:14.631Z,46.58
2022-12-01T09:32:43.974Z,47.20
2022-12-01T09:35:14.799Z,47.78
2022-12-01T09:37:44.297Z,39.55
2022-12-01T09:40:16.766Z,35.77
2022-12-01T09:42:48.918Z,45.20
2022-12-01T09:45:26.625Z,37.97
2022-12-01T09:47:59.151Z,41.50
2022-12-01T09:50:31.590Z,41.50
2022-12-01T09:53:05.038Z,33.60
2022-12-01T09:55:36.924Z,38.28
2022-12-01T09:58:06.801Z,41.47
2022-12-01T10:00:43.110Z,33.88
2022-12-01T10:03:23.389Z,35.13
2022-12-01T10:06:26.229Z,34.40
2022-12-01T10:08:56.445Z,33.88
2022-12-01T10:11:35.997Z,32.50
2022-12-01T10:14:05.803Z,35.33
2022-12-01T10:16:39.769Z,36.50
2022-12-01T10:19:15.142Z,42.10
2022-12-01T10:22:02.300Z,46.15
2022-12-01T10:24:46.419Z,45.67
2022-12-01T10:27:26.661Z,45.38
2022-12-01T10:30:03.458Z,44.13
2022-12-01T10:32:42.188Z,44.77
2022-12-01T10:35:16.687Z,43.83
2022-12-01T10:37:49.004Z,47.25
2022-12-01T10:40:19.514Z,42.58
2022-12-01T10:42:50.389Z,47.67
2022-12-01T10:45:23.986Z,41.53
2022-12-01T10:48:11.578Z,43.40
2022-12-01T10:50:41.213Z,45.40
2022-12-01T10:53:27.901Z,41.75
2022-12-01T10:56:06.270Z,38.95
2022-12-01T10:58:42.102Z,44.97
2022-12-01T11:01:19.354Z,46.72
2022-12-01T11:03:53.927Z,41.30
2022-12-01T11:06:25.960Z,42.90
2022-12-01T11:08:59.170Z,35.92
2022-12-01T11:11:33.281Z,33.93
2022-12-01T11:14:05.500Z,35.00
2022-12-01T11:16:41.351Z,36.10
2022-12-01T11:19:31.024Z,35.30
2022-12-01T11:22:01.856Z,49.50
2022-12-01T11:24:43.286Z,33.20
2022-12-01T11:27:18.712Z,32.35
2022-12-01T11:29:51.159Z,30.55
2022-12-01T11:32:25.558Z,29.92
2022-12-01T11:34:58.560Z,35.10
2022-12-01T11:37:32.967Z,40.50
2022-12-01T11:40:18.211Z,36.38
2022-12-01T11:42:51.088Z,35.03
2022-12-01T11:45:30.427Z,37.25
2022-12-01T11:48:03.151Z,40.20
2022-12-01T11:50:34.833Z,43.50
2022-12-01T11:53:05.499Z,47.92
2022-12-01T11:55:36.351Z,45.50
2022-12-01T11:58:05.928Z,46.80
2022-12-01T12:00:45.257Z,44.47
2022-12-01T12:03:25.238Z,44.40
2022-12-01T12:06:39.527Z,45.75
2022-12-01T12:09:44.927Z,42.70
2022-12-01T12:12:29.061Z,43.25
2022-12-01T12:15:07.328Z,42.70
2022-12-01T12:18:08.647Z,43.53
2022-12-01T12:20:50.935Z,44.65
2022-12-01T12:23:42.147Z,41.50
2022-12-01T12:26:17.689Z,44.80
2022-12-01T12:29:00.887Z,41.03
2022-12-01T12:31:41.077Z,41.43
2022-12-01T12:34:23.092Z,41.90
2022-12-01T12:37:02.570Z,43.75
2022-12-01T12:39:48.105Z,38.03
2022-12-01T12:42:26.740Z,40.33
2022-12-01T12:45:06.586Z,37.10
2022-12-01T12:47:51.330Z,45.25
2022-12-01T12:50:28.771Z,42.65
2022-12-01T12:53:03.774Z,44.08
2022-12-01T12:55:38.728Z,40.13
2022-12-01T12:58:15.930Z,46.00
2022-12-01T13:00:52.590Z,39.20
2022-12-01T13:03:33.761Z,36.05
2022-12-01T13:06:08.374Z,37.22
2022-12-01T13:08:48.089Z,42.45
2022-12-01T13:11:23.664Z,37.80
2022-12-01T13:14:00.086Z,44.03
2022-12-01T13:16:36.502Z,36.22
2022-12-01T13:19:12.982Z,38.25
2022-12-01T13:21:45.497Z,40.60
2022-12-01T13:24:22.806Z,38.23
2022-12-01T13:26:56.763Z,35.28
2022-12-01T13:29:38.422Z,36.80
2022-12-01T13:32:30.561Z,39.72
2022-12-01T13:35:01.216Z,37.13
2022-12-01T13:37:33.270Z,38.97
2022-12-01T13:40:22.366Z,40.83
2022-12-01T13:43:05.470Z,36.17
2022-12-01T13:45:39.854Z,37.38
2022-12-01T13:48:29.268Z,33.00
2022-12-01T13:51:01.859Z,37.67
2022-12-01T13:53:36.203Z,36.47
2022-12-01T13:56:23.229Z,36.55
2022-12-01T13:58:54.579Z,38.85
2022-12-01T14:01:46.340Z,36.92
2022-12-01T14:04:31.684Z,37.67
2022-12-01T14:07:38.802Z,37.75
2022-12-01T14:10:24.420Z,35.83
2022-12-01T14:12:56.941Z,37.53
2022-12-01T14:15:42.824Z,31.30
2022-12-01T14:18:45.121Z,37.20
2022-12-01T14:21:16.069Z,33.38
2022-12-01T14:24:02.380Z,37.97
2022-12-01T14:26:32.360Z,37.28
2022-12-01T14:29:26.488Z,34.42
2022-12-01T14:32:25.606Z,41.13
2022-12-01T14:35:01.732Z,39.60
2022-12-01T14:37:40.851Z,39.22
2022-12-01T14:40:18.535Z,37.97
2022-12-01T14:43:09.710Z,35.00
2022-12-01T14:45:44.162Z,38.83
2022-12-01T14:48:17.201Z,38.22
2022-12-01T14:50:53.271Z,35.97
2022-12-01T14:53:28.238Z,38.95
2022-12-01T14:56:01.322Z,41.63
2022-12-01T14:58:32.438Z,38.53
2022-12-01T15:01:07.802Z,38.67
2022-12-01T15:03:40.990Z,39.17
2022-12-01T15:06:11.512Z,39.45
2022-12-01T15:08:53.171Z,38.63
2022-12-01T15:11:26.086Z,37.40
2022-12-01T15:13:56.441Z,36.80
2022-12-01T15:16:27.603Z,40.47
2022-12-01T15:18:57.069Z,39.97
2022-12-01T15:21:28.823Z,40.42
2022-12-01T15:24:01.903Z,44.13
2022-12-01T15:26:33.370Z,44.42
2022-12-01T15:29:15.072Z,43.58
2022-12-01T15:31:46.331Z,48.08
2022-12-01T15:34:18.760Z,46.00
2022-12-01T15:36:49.711Z,47.73
2022-12-01T15:39:22.810Z,45.78
2022-12-01T15:41:54.349Z,45.45
2022-12-01T15:44:29.279Z,46.58
2022-12-01T15:46:58.945Z,52.35
2022-12-01T15:49:33.080Z,44.87
2022-12-01T15:52:08.895Z,43.13
2022-12-01T15:54:40.649Z,44.25
2022-12-01T15:57:09.961Z,46.53
2022-12-01T15:59:42.103Z,50.58
2022-12-01T16:02:27.192Z,45.57
2022-12-01T16:05:05.788Z,51.95
2022-12-01T16:08:11.595Z,46.20
2022-12-01T16:10:32.732Z,48.42
2022-12-01T16:13:54.030Z,44.47
2022-12-01T16:16:32.407Z,42.80
2022-12-01T16:19:04.190Z,46.92
2022-12-01T16:21:46.718Z,43.45
2022-12-01T16:24:19.369Z,42.97
2022-12-01T16:26:53.791Z,47.30
2022-12-01T16:29:24.481Z,49.47
2022-12-01T16:34:46.589Z,48.03
2022-12-01T16:37:17.027Z,45.60
2022-12-01T16:39:46.534Z,45.60
2022-12-01T16:42:20.793Z,44.97
2022-12-01T16:44:51.455Z,47.50
2022-12-01T16:47:23.086Z,43.97
2022-12-01T16:49:53.380Z,45.17
2022-12-01T16:52:43.667Z,41.70
2022-12-01T16:55:37.755Z,44.93
2022-12-01T16:58:08.573Z,43.72
2022-12-01T17:00:37.886Z,43.97
2022-12-01T17:03:08.414Z,43.47
2022-12-01T17:05:38.678Z,42.80
2022-12-01T17:08:08.150Z,53.90
2022-12-01T17:10:40.891Z,49.05
2022-12-01T17:13:12.284Z,45.80
2022-12-01T17:15:42.601Z,50.40
2022-12-01T17:18:12.851Z,45.10
2022-12-01T17:20:42.368Z,51.23
2022-12-01T17:23:12.627Z,47.22
2022-12-01T17:25:42.259Z,54.33
2022-12-01T17:28:12.977Z,48.35
2022-12-01T17:30:43.147Z,51.80
2022-12-01T17:33:12.473Z,44.47
2022-12-01T17:35:41.800Z,46.25
2022-12-01T17:38:11.562Z,44.97
2022-12-01T17:40:40.882Z,54.55
2022-12-01T17:43:10.605Z,60.85
2022-12-01T17:45:42.215Z,50.10
2022-12-01T17:48:11.769Z,52.42
2022-12-01T17:50:41.052Z,51.83
2022-12-01T17:53:10.328Z,53.80
2022-12-01T17:55:40.722Z,54.53
2022-12-01T17:58:10.210Z,51.97
2022-12-01T18:00:41.051Z,52.88
2022-12-01T18:03:10.560Z,57.65
2022-12-01T18:05:40.432Z,56.47
2022-12-01T18:08:10.033Z,54.80
2022-12-01T18:10:39.428Z,51.67
2022-12-01T18:13:09.110Z,50.65
2022-12-01T18:15:41.783Z,52.47
2022-12-01T18:18:11.263Z,45.63
2022-12-01T18:20:42.782Z,55.45
2022-12-01T18:23:12.889Z,46.77
2022-12-01T18:25:42.262Z,52.63
2022-12-01T18:28:11.680Z,53.83
2022-12-01T18:30:42.621Z,53.25
2022-12-01T18:33:13.470Z,43.13
2022-12-01T18:35:44.827Z,51.50
2022-12-01T18:38:14.730Z,44.90
2022-12-01T18:40:44.067Z,52.22
2022-12-01T18:43:13.514Z,52.90
2022-12-01T18:45:44.347Z,52.60
2022-12-01T18:48:13.659Z,44.70
2022-12-01T18:50:43.001Z,45.40
2022-12-01T18:53:12.498Z,42.08
2022-12-01T18:55:41.926Z,40.53
2022-12-01T18:58:11.530Z,39.47
2022-12-01T19:00:41.001Z,34.00
2022-12-01T19:03:12.100Z,36.17
2022-12-01T19:05:42.263Z,36.20
2022-12-01T19:08:12.740Z,35.03
2022-12-01T19:10:43.420Z,34.63
2022-12-01T19:13:13.874Z,39.20
2022-12-01T19:15:44.982Z,43.17
2022-12-01T19:18:16.948Z,44.53
2022-12-01T19:20:48.098Z,48.22
2022-12-01T19:23:19.660Z,42.47
2022-12-01T19:25:50.126Z,46.23
2022-12-01T19:28:22.981Z,52.45
2022-12-01T19:30:54.518Z,52.53
2022-12-01T19:33:26.475Z,45.53
2022-12-01T19:35:56.892Z,48.00
2022-12-01T19:38:28.789Z,46.07
2022-12-01T19:40:59.144Z,53.80
2022-12-01T19:43:29.745Z,55.25
2022-12-01T19:46:00.402Z,50.22
2022-12-01T19:48:32.221Z,47.85
2022-12-01T19:51:02.129Z,47.73
2022-12-01T19:53:33.869Z,54.15
2022-12-01T19:56:05.279Z,49.10
2022-12-01T19:58:35.498Z,46.78
2022-12-01T20:01:06.635Z,53.58
2022-12-01T20:03:41.349Z,47.97
2022-12-01T20:06:14.791Z,53.42
2022-12-01T20:08:45.391Z,50.83
2022-12-01T20:11:16.270Z,55.67
2022-12-01T20:13:50.652Z,52.60
2022-12-01T20:16:23.967Z,57.93
2022-12-01T20:18:56.509Z,54.50
2022-12-01T20:21:28.700Z,56.90
2022-12-01T20:24:01.061Z,59.03
2022-12-01T20:26:35.057Z,60.58
2022-12-01T20:29:08.145Z,67.33
2022-12-01T20:31:40.608Z,57.53
2022-12-01T20:34:16.570Z,61.13
2022-12-01T20:36:47.073Z,62.72
2022-12-01T20:39:18.100Z,63.38
2022-12-01T20:41:49.736Z,68.23
2022-12-01T20:44:20.820Z,60.90
2022-12-01T20:46:51.152Z,63.92
2022-12-01T20:49:23.201Z,65.78
2022-12-01T20:51:53.850Z,57.60
2022-12-01T20:54:28.883Z,69.10
2022-12-01T20:57:00.249Z,67.70
2022-12-01T20:59:30.211Z,63.38
2022-12-01T21:01:59.624Z,63.25
2022-12-01T21:04:30.513Z,61.45
2022-12-01T21:06:59.905Z,68.83
2022-12-01T21:09:29.334Z,67.95
2022-12-01T21:12:18.104Z,66.88
2022-12-01T21:14:54.772Z,67.63
2022-12-01T21:17:34.461Z,59.83
2022-12-01T21:20:18.261Z,70.03
2022-12-01T21:22:47.781Z,69.90
2022-12-01T21:25:20.910Z,65.05
2022-12-01T21:27:51.142Z,66.70
2022-12-01T21:30:22.379Z,68.38
2022-12-01T21:32:51.820Z,61.50
2022-12-01T21:35:24.997Z,57.10
2022-12-01T21:38:01.793Z,69.38
2022-12-01T21:40:31.911Z,63.25
2022-12-01T21:43:13.910Z,65.93
2022-12-01T21:45:43.268Z,61.77
2022-12-01T21:48:17.221Z,58.00
2022-12-01T21:50:52.360Z,66.13
2022-12-01T21:53:26.257Z,63.60
2022-12-01T21:55:58.005Z,58.70
2022-12-01T21:58:30.221Z,53.40
2022-12-01T22:01:01.028Z,54.30
2022-12-01T22:03:33.173Z,54.28
2022-12-01T22:06:29.184Z,57.92
2022-12-01T22:09:02.470Z,58.88
2022-12-01T22:11:32.927Z,57.73
2022-12-01T22:14:12.618Z,44.97
2022-12-01T22:16:44.060Z,59.13
2022-12-01T22:19:26.469Z,61.28
2022-12-01T22:22:01.881Z,56.90
2022-12-01T22:24:38.631Z,54.97
2022-12-01T22:27:20.388Z,48.65
2022-12-01T22:29:52.391Z,49.08
2022-12-01T22:32:37.502Z,45.70
2022-12-01T22:35:36.208Z,52.70
2022-12-01T22:38:21.748Z,56.60
2022-12-01T22:40:58.236Z,57.80
2022-12-01T22:43:43.864Z,57.08
2022-12-01T22:46:25.173Z,46.97
2022-12-01T22:48:56.241Z,52.85
2022-12-01T22:51:37.595Z,50.50
2022-12-01T22:54:39.129Z,61.83
2022-12-01T22:57:25.558Z,47.42
2022-12-01T22:59:55.460Z,41.65
2022-12-01T23:02:28.602Z,49.35
2022-12-01T23:05:00.388Z,44.00
2022-12-01T23:07:32.114Z,49.47
2022-12-01T23:10:09.389Z,54.97
2022-12-01T23:12:39.069Z,46.00
2022-12-01T23:15:31.157Z,51.15
2022-12-01T23:18:07.011Z,51.73
2022-12-01T23:20:36.681Z,53.70
2022-12-01T23:23:09.786Z,51.20
2022-12-01T23:25:41.891Z,62.47
2022-12-01T23:28:12.776Z,55.08
2022-12-01T23:30:44.323Z,61.43
2022-12-01T23:33:20.115Z,49.97
2022-12-01T23:35:54.839Z,54.65
2022-12-01T23:38:27.490Z,55.65
2022-12-01T23:41:01.053Z,53.05
2022-12-01T23:43:33.309Z,48.27
2022-12-01T23:46:06.509Z,60.72
2022-12-01T23:48:39.158Z,56.60
2022-12-01T23:51:16.568Z,51.83
2022-12-01T23:53:46.165Z,54.08
2022-12-01T23:56:20.502Z,50.43
2022-12-01T23:58:50.639Z,53.67
